createdAt,value
2022-08-07T00:00:03.119Z,11.30
2022-08-07T00:01:01.386Z,11.26
2022-08-07T00:02:40.497Z,11.29
2022-08-07T00:03:02.773Z,11.17
2022-08-07T00:04:01.358Z,11.15
2022-08-07T00:05:01.390Z,11.18
2022-08-07T00:06:01.342Z,11.08
2022-08-07T00:07:05.295Z,11.18
2022-08-07T00:08:02.370Z,11.23
2022-08-07T00:09:17.205Z,11.17
2022-08-07T00:10:25.578Z,11.12
2022-08-07T00:11:03.320Z,11.12
2022-08-07T00:12:01.297Z,11.17
2022-08-07T00:13:02.487Z,11.12
2022-08-07T00:14:03.290Z,11.11
2022-08-07T00:15:01.304Z,11.25
2022-08-07T00:16:01.269Z,11.04
2022-08-07T00:17:01.671Z,10.97
2022-08-07T00:18:01.249Z,10.93
2022-08-07T00:19:01.246Z,11.08
2022-08-07T00:20:03.480Z,10.97
2022-08-07T00:21:03.438Z,11.07
2022-08-07T00:22:03.353Z,11.02
2022-08-07T00:23:01.223Z,10.96
2022-08-07T00:24:01.205Z,10.97
2022-08-07T00:25:01.237Z,10.96
2022-08-07T00:26:13.330Z,10.94
2022-08-07T00:27:07.378Z,10.90
2022-08-07T00:28:02.231Z,10.93
2022-08-07T00:29:01.175Z,10.93
2022-08-07T00:30:01.197Z,10.89
2022-08-07T00:31:01.150Z,10.89
2022-08-07T00:32:02.154Z,10.90
2022-08-07T00:33:01.164Z,10.84
2022-08-07T00:34:01.132Z,10.72
2022-08-07T00:35:01.130Z,10.67
2022-08-07T00:36:01.145Z,10.60
2022-08-07T00:37:01.112Z,10.61
2022-08-07T00:38:01.118Z,10.57
2022-08-07T00:39:01.137Z,10.48
2022-08-07T00:40:01.163Z,10.38
2022-08-07T00:41:01.101Z,10.37
2022-08-07T00:42:01.813Z,10.44
2022-08-07T00:43:01.065Z,10.41
2022-08-07T00:44:03.002Z,10.34
2022-08-07T00:45:02.051Z,10.33
2022-08-07T00:46:02.249Z,10.34
2022-08-07T00:47:01.042Z,10.30
2022-08-07T00:48:08.218Z,10.35
2022-08-07T00:49:02.343Z,10.19
2022-08-07T00:50:21.367Z,10.23
2022-08-07T00:51:02.028Z,10.13
2022-08-07T00:52:00.993Z,10.13
2022-08-07T00:53:00.978Z,10.20
2022-08-07T00:54:01.979Z,10.13
2022-08-07T00:55:05.006Z,10.05
2022-08-07T00:56:03.696Z,10.01
2022-08-07T00:57:00.969Z,10.01
2022-08-07T00:58:00.957Z,10.05
2022-08-07T00:59:00.946Z,10.05
2022-08-07T01:00:00.936Z,10.07
2022-08-07T01:01:01.023Z,10.12
2022-08-07T01:02:01.005Z,10.10
2022-08-07T01:03:00.918Z,10.04
2022-08-07T01:04:00.906Z,10.10
2022-08-07T01:05:00.898Z,10.01
2022-08-07T01:06:00.914Z,9.98
2022-08-07T01:07:00.878Z,9.95
2022-08-07T01:08:00.873Z,10.02
2022-08-07T01:09:01.526Z,9.95
2022-08-07T01:10:06.897Z,9.94
2022-08-07T01:12:04.580Z,9.92
2022-08-07T01:12:09.745Z,9.95
2022-08-07T01:13:01.831Z,9.89
2022-08-07T01:14:00.826Z,9.92
2022-08-07T01:15:03.711Z,9.86
2022-08-07T01:16:05.829Z,9.83
2022-08-07T01:17:04.192Z,9.76
2022-08-07T01:18:01.801Z,9.77
2022-08-07T01:19:00.782Z,9.77
2022-08-07T01:20:00.777Z,9.82
2022-08-07T01:21:00.806Z,9.83
2022-08-07T01:22:00.765Z,9.77
2022-08-07T01:23:12.395Z,9.68
2022-08-07T01:24:01.750Z,9.59
2022-08-07T01:25:00.742Z,9.58
2022-08-07T01:26:00.768Z,9.62
2022-08-07T01:27:00.721Z,9.62
2022-08-07T01:28:00.718Z,9.68
2022-08-07T01:29:33.906Z,9.61
2022-08-07T01:30:00.891Z,9.62
2022-08-07T01:31:00.699Z,9.58
2022-08-07T01:32:00.715Z,9.72
2022-08-07T01:33:00.687Z,9.73
2022-08-07T01:34:00.676Z,9.73
2022-08-07T01:35:00.667Z,9.74
2022-08-07T01:36:06.311Z,9.66
2022-08-07T01:37:01.677Z,9.73
2022-08-07T01:38:00.662Z,9.62
2022-08-07T01:39:00.698Z,9.73
2022-08-07T01:40:00.815Z,9.76
2022-08-07T01:41:00.621Z,9.79
2022-08-07T01:42:36.766Z,9.68
2022-08-07T01:43:01.602Z,9.72
2022-08-07T01:44:00.595Z,9.62
2022-08-07T01:45:00.587Z,9.65
2022-08-07T01:46:00.599Z,9.65
2022-08-07T01:47:00.983Z,9.61
2022-08-07T01:48:30.494Z,9.68
2022-08-07T01:49:02.358Z,9.69
2022-08-07T01:50:00.706Z,9.62
2022-08-07T01:51:24.283Z,9.64
2022-08-07T01:52:04.745Z,9.54
2022-08-07T01:53:00.541Z,9.56
2022-08-07T01:54:09.412Z,9.54
2022-08-07T01:55:02.021Z,9.51
2022-08-07T01:56:00.500Z,9.54
2022-08-07T01:57:01.591Z,9.47
2022-08-07T01:58:01.350Z,9.46
2022-08-07T01:59:01.501Z,9.55
2022-08-07T02:00:00.477Z,9.48
2022-08-07T02:01:10.130Z,9.44
2022-08-07T02:02:04.255Z,9.41
2022-08-07T02:03:19.274Z,9.41
2022-08-07T02:04:01.538Z,9.47
2022-08-07T02:05:00.448Z,9.51
2022-08-07T02:06:01.027Z,9.54
2022-08-07T02:07:00.451Z,9.51
2022-08-07T02:08:00.414Z,9.47
2022-08-07T02:09:00.410Z,9.44
2022-08-07T02:10:00.404Z,9.43
2022-08-07T02:11:00.383Z,9.46
2022-08-07T02:12:04.948Z,9.43
2022-08-07T02:13:00.382Z,9.41
2022-08-07T02:14:02.332Z,9.22
2022-08-07T02:15:00.613Z,9.31
2022-08-07T02:16:00.356Z,9.28
2022-08-07T02:17:00.372Z,9.26
2022-08-07T02:18:00.339Z,9.19
2022-08-07T02:19:00.337Z,9.19
2022-08-07T02:20:04.348Z,9.25
2022-08-07T02:21:01.314Z,9.22
2022-08-07T02:22:01.331Z,9.29
2022-08-07T02:23:00.301Z,9.13
2022-08-07T02:24:00.295Z,9.19
2022-08-07T02:25:00.284Z,9.23
2022-08-07T02:26:31.791Z,9.23
2022-08-07T02:27:02.425Z,9.21
2022-08-07T02:28:00.257Z,9.25
2022-08-07T02:29:00.262Z,9.21
2022-08-07T02:30:00.242Z,9.22
2022-08-07T02:31:00.231Z,9.22
2022-08-07T02:32:01.350Z,9.19
2022-08-07T02:33:09.076Z,9.34
2022-08-07T02:34:03.170Z,9.29
2022-08-07T02:35:00.807Z,9.36
2022-08-07T02:36:30.302Z,9.31
2022-08-07T02:37:01.205Z,9.28
2022-08-07T02:38:00.178Z,9.25
2022-08-07T02:39:00.282Z,9.28
2022-08-07T02:40:11.698Z,9.41
2022-08-07T02:41:01.221Z,9.36
2022-08-07T02:42:00.181Z,9.26
2022-08-07T02:43:00.147Z,9.23
2022-08-07T02:44:00.133Z,9.19
2022-08-07T02:45:00.124Z,9.28
2022-08-07T02:46:02.104Z,9.22
2022-08-07T02:47:00.974Z,9.25
2022-08-07T02:48:01.611Z,9.22
2022-08-07T02:49:00.099Z,9.19
2022-08-07T02:50:00.490Z,9.18
2022-08-07T02:51:01.077Z,9.13
2022-08-07T02:52:00.114Z,9.19
2022-08-07T02:53:03.220Z,9.16
2022-08-07T02:54:00.068Z,9.16
2022-08-07T02:55:00.051Z,9.16
2022-08-07T02:56:02.353Z,9.14
2022-08-07T02:57:01.058Z,9.14
2022-08-07T02:58:00.030Z,9.21
2022-08-07T02:59:00.016Z,9.08
2022-08-07T03:00:01.247Z,9.08
2022-08-07T03:01:00.075Z,9.18
2022-08-07T03:02:02.239Z,9.08
2022-08-07T03:02:59.990Z,9.04
2022-08-07T03:04:03.182Z,9.10
2022-08-07T03:05:05.219Z,9.22
2022-08-07T03:06:00.981Z,9.14
2022-08-07T03:07:07.378Z,9.14
2022-08-07T03:08:05.325Z,9.18
2022-08-07T03:09:00.942Z,9.06
2022-08-07T03:09:59.935Z,9.22
2022-08-07T03:10:59.929Z,9.10
2022-08-07T03:12:02.580Z,9.11
2022-08-07T03:12:59.916Z,9.02
2022-08-07T03:14:01.742Z,9.03
2022-08-07T03:15:02.377Z,8.89
2022-08-07T03:16:00.892Z,8.99
2022-08-07T03:16:59.913Z,8.95
2022-08-07T03:17:59.879Z,8.95
2022-08-07T03:18:59.867Z,8.89
2022-08-07T03:19:59.862Z,8.88
2022-08-07T03:20:59.849Z,8.85
2022-08-07T03:21:59.872Z,8.81
2022-08-07T03:22:59.838Z,8.58
2022-08-07T03:24:19.790Z,8.63
2022-08-07T03:25:00.830Z,8.56
2022-08-07T03:26:00.010Z,8.58
2022-08-07T03:26:59.822Z,8.63
2022-08-07T03:28:09.624Z,8.66
2022-08-07T03:29:00.794Z,8.74
2022-08-07T03:29:59.779Z,8.71
2022-08-07T03:30:59.769Z,8.67
2022-08-07T03:31:59.790Z,8.84
2022-08-07T03:32:59.750Z,8.70
2022-08-07T03:33:59.747Z,8.82
2022-08-07T03:35:01.001Z,8.69
2022-08-07T03:36:00.731Z,8.84
2022-08-07T03:36:59.764Z,8.71
2022-08-07T03:38:00.729Z,8.71
2022-08-07T03:39:05.526Z,8.73
2022-08-07T03:40:15.626Z,8.69
2022-08-07T03:41:00.787Z,8.66
2022-08-07T03:42:00.654Z,8.73
2022-08-07T03:42:59.683Z,8.56
2022-08-07T03:43:59.680Z,8.49
2022-08-07T03:44:59.673Z,8.58
2022-08-07T03:45:59.662Z,8.51
2022-08-07T03:47:11.429Z,8.42
2022-08-07T03:48:00.642Z,8.49
2022-08-07T03:49:02.743Z,8.49
2022-08-07T03:49:59.669Z,8.55
2022-08-07T03:50:59.617Z,8.58
2022-08-07T03:52:01.135Z,8.53
2022-08-07T03:52:59.611Z,8.53
2022-08-07T03:54:32.940Z,8.41
2022-08-07T03:55:07.170Z,8.46
2022-08-07T03:56:03.993Z,8.49
2022-08-07T03:57:03.598Z,8.49
2022-08-07T03:58:35.151Z,8.51
2022-08-07T03:59:08.202Z,8.52
2022-08-07T04:00:01.637Z,8.52
2022-08-07T04:01:00.669Z,8.53
2022-08-07T04:01:59.634Z,8.53
2022-08-07T04:02:59.632Z,8.51
2022-08-07T04:03:59.521Z,8.37
2022-08-07T04:05:00.531Z,8.49
2022-08-07T04:05:59.916Z,8.46
2022-08-07T04:07:00.122Z,8.48
2022-08-07T04:07:59.488Z,8.58
2022-08-07T04:08:59.481Z,8.55
2022-08-07T04:09:59.473Z,8.58
2022-08-07T04:12:23.849Z,8.64
2022-08-07T04:12:27.947Z,8.52
2022-08-07T04:13:00.452Z,8.48
2022-08-07T04:14:10.775Z,8.51
2022-08-07T04:15:00.551Z,8.60
2022-08-07T04:15:59.434Z,8.55
2022-08-07T04:16:59.423Z,8.60
2022-08-07T04:18:57.735Z,8.52
2022-08-07T04:19:01.553Z,8.61
2022-08-07T04:20:00.391Z,8.51
2022-08-07T04:21:00.402Z,8.60
2022-08-07T04:22:08.621Z,8.67
2022-08-07T04:23:01.806Z,8.53
2022-08-07T04:24:06.075Z,8.52
2022-08-07T04:25:01.452Z,8.64
2022-08-07T04:25:59.368Z,8.60
2022-08-07T04:26:59.350Z,8.48
2022-08-07T04:28:00.846Z,8.58
2022-08-07T04:28:59.335Z,8.71
2022-08-07T04:30:01.963Z,8.73
2022-08-07T04:30:59.362Z,8.84
2022-08-07T04:32:03.192Z,8.99
2022-08-07T04:33:00.348Z,9.11
2022-08-07T04:33:59.299Z,9.37
2022-08-07T04:34:59.306Z,9.74
2022-08-07T04:35:59.282Z,10.25
2022-08-07T04:36:59.285Z,10.60
2022-08-07T04:38:06.957Z,10.81
2022-08-07T04:39:00.330Z,11.02
2022-08-07T04:40:00.134Z,11.22
2022-08-07T04:40:59.246Z,11.37
2022-08-07T04:41:59.233Z,11.65
2022-08-07T04:43:02.056Z,11.78
2022-08-07T04:44:12.106Z,11.87
2022-08-07T04:45:03.217Z,11.70
2022-08-07T04:46:01.523Z,11.97
2022-08-07T04:47:04.515Z,11.80
2022-08-07T04:48:05.577Z,11.86
2022-08-07T04:49:01.590Z,11.77
2022-08-07T04:50:04.592Z,11.97
2022-08-07T04:51:00.165Z,12.15
2022-08-07T04:51:59.159Z,12.46
2022-08-07T04:52:59.181Z,12.82
2022-08-07T04:54:05.895Z,13.22
2022-08-07T04:55:00.133Z,13.41
2022-08-07T04:58:09.998Z,13.53
2022-08-07T04:58:14.297Z,13.16
2022-08-07T04:58:15.788Z,13.20
2022-08-07T05:00:11.510Z,12.83
2022-08-07T05:01:00.142Z,12.80
2022-08-07T05:01:59.087Z,12.98
2022-08-07T05:02:59.102Z,12.58
2022-08-07T05:04:06.760Z,12.67
2022-08-07T05:05:00.074Z,12.75
2022-08-07T05:05:59.051Z,12.64
2022-08-07T05:06:59.191Z,12.72
2022-08-07T05:07:59.062Z,13.16
2022-08-07T05:09:01.895Z,13.54
2022-08-07T05:09:59.028Z,13.57
2022-08-07T05:11:02.541Z,13.70
2022-08-07T05:12:02.411Z,13.87
2022-08-07T05:14:45.553Z,14.45
2022-08-07T05:14:52.899Z,15.11
2022-08-07T05:15:04.229Z,15.65
2022-08-07T05:15:59.981Z,14.66
2022-08-07T05:16:58.975Z,14.22
2022-08-07T05:18:00.543Z,13.71
2022-08-07T05:18:58.951Z,12.85
2022-08-07T05:19:58.946Z,13.37
2022-08-07T05:20:58.942Z,13.96
2022-08-07T05:22:01.409Z,14.50
2022-08-07T05:22:58.951Z,15.02
2022-08-07T05:23:58.913Z,15.61
2022-08-07T05:24:59.744Z,15.24
2022-08-07T05:26:15.553Z,14.40
2022-08-07T05:26:59.887Z,14.77
2022-08-07T05:28:03.523Z,15.10
2022-08-07T05:28:59.878Z,14.73
2022-08-07T05:29:58.913Z,13.50
2022-08-07T05:30:58.861Z,13.16
2022-08-07T05:31:58.853Z,12.95
2022-08-07T05:32:58.868Z,13.49
2022-08-07T05:34:04.264Z,14.11
2022-08-07T05:34:59.839Z,14.60
2022-08-07T05:35:58.828Z,15.24
2022-08-07T05:36:58.823Z,15.64
2022-08-07T05:38:09.634Z,16.21
2022-08-07T05:40:07.111Z,16.60
2022-08-07T05:40:14.104Z,16.16
2022-08-07T05:41:00.849Z,15.15
2022-08-07T05:42:00.490Z,15.72
2022-08-07T05:42:58.799Z,15.98
2022-08-07T05:44:12.191Z,16.10
2022-08-07T05:45:14.455Z,16.71
2022-08-07T05:45:59.749Z,16.72
2022-08-07T05:47:00.329Z,16.00
2022-08-07T05:48:01.242Z,15.76
2022-08-07T05:48:59.503Z,14.50
2022-08-07T05:49:58.717Z,13.57
2022-08-07T05:50:58.706Z,13.52
2022-08-07T05:51:58.698Z,13.97
2022-08-07T05:52:58.719Z,14.22
2022-08-07T05:54:13.523Z,14.70
2022-08-07T05:55:02.960Z,14.53
2022-08-07T05:56:03.162Z,13.83
2022-08-07T05:56:58.803Z,13.89
2022-08-07T05:57:58.686Z,14.30
2022-08-07T05:58:58.642Z,14.97
2022-08-07T05:59:58.637Z,15.28
2022-08-07T06:00:58.642Z,15.51
2022-08-07T06:01:59.709Z,15.40
2022-08-07T06:02:58.610Z,15.31
2022-08-07T06:04:01.298Z,14.72
2022-08-07T06:04:58.601Z,14.48
2022-08-07T06:05:58.626Z,13.93
2022-08-07T06:07:03.823Z,13.60
2022-08-07T06:08:13.138Z,12.98
2022-08-07T06:08:59.571Z,13.54
2022-08-07T06:10:04.767Z,13.70
2022-08-07T06:10:59.549Z,13.74
2022-08-07T06:11:59.547Z,13.87
2022-08-07T06:12:58.538Z,14.05
2022-08-07T06:14:13.139Z,14.36
2022-08-07T06:15:05.286Z,14.66
2022-08-07T06:15:59.518Z,14.94
2022-08-07T06:16:58.507Z,15.09
2022-08-07T06:17:58.503Z,15.10
2022-08-07T06:18:58.532Z,14.82
2022-08-07T06:20:04.171Z,13.99
2022-08-07T06:22:14.587Z,13.68
2022-08-07T06:22:16.585Z,13.49
2022-08-07T06:23:02.463Z,13.57
2022-08-07T06:24:37.456Z,13.44
2022-08-07T06:25:01.550Z,13.60
2022-08-07T06:25:58.440Z,13.96
2022-08-07T06:26:58.427Z,14.35
2022-08-07T06:28:02.848Z,14.69
2022-08-07T06:29:01.343Z,15.07
2022-08-07T06:29:58.435Z,15.35
2022-08-07T06:30:58.629Z,15.49
2022-08-07T06:31:58.396Z,15.10
2022-08-07T06:32:58.386Z,14.96
2022-08-07T06:33:58.406Z,15.06
2022-08-07T06:34:58.371Z,15.21
2022-08-07T06:36:12.061Z,14.81
2022-08-07T06:36:59.357Z,14.65
2022-08-07T06:37:58.377Z,14.79
2022-08-07T06:40:15.632Z,14.82
2022-08-07T06:40:16.591Z,14.99
2022-08-07T06:40:59.391Z,14.78
2022-08-07T06:42:02.440Z,14.78
2022-08-07T06:42:58.307Z,14.50
2022-08-07T06:44:01.471Z,14.14
2022-08-07T06:44:59.300Z,14.26
2022-08-07T06:46:01.017Z,14.33
2022-08-07T06:47:12.057Z,14.45
2022-08-07T06:47:59.796Z,14.51
2022-08-07T06:48:58.290Z,15.02
2022-08-07T06:49:58.969Z,15.44
2022-08-07T06:50:58.251Z,15.86
2022-08-07T06:52:02.865Z,16.02
2022-08-07T06:53:00.261Z,16.16
2022-08-07T06:55:27.397Z,16.10
2022-08-07T06:55:33.047Z,16.26
2022-08-07T06:56:01.505Z,16.10
2022-08-07T06:56:58.205Z,15.94
2022-08-07T06:57:59.327Z,16.10
2022-08-07T07:00:14.595Z,16.51
2022-08-07T07:00:15.072Z,16.32
2022-08-07T07:00:59.179Z,16.61
2022-08-07T07:01:58.392Z,16.69
2022-08-07T07:03:01.353Z,16.64
2022-08-07T07:04:27.648Z,16.79
2022-08-07T07:04:59.134Z,16.90
2022-08-07T07:06:02.960Z,16.57
2022-08-07T07:07:01.125Z,16.51
2022-08-07T07:07:59.859Z,16.87
2022-08-07T07:08:59.099Z,17.14
2022-08-07T07:09:58.092Z,17.30
2022-08-07T07:10:59.000Z,17.56
2022-08-07T07:12:07.607Z,17.70
2022-08-07T07:12:59.099Z,17.71
2022-08-07T07:14:01.411Z,17.54
2022-08-07T07:14:58.050Z,17.70
2022-08-07T07:15:58.041Z,17.39
2022-08-07T07:16:58.036Z,16.87
2022-08-07T07:17:58.162Z,16.76
2022-08-07T07:18:58.017Z,17.20
2022-08-07T07:19:59.152Z,17.02
2022-08-07T07:20:59.009Z,16.83
2022-08-07T07:22:04.633Z,16.94
2022-08-07T07:24:10.106Z,17.22
2022-08-07T07:24:10.106Z,17.42
2022-08-07T07:25:13.912Z,17.72
2022-08-07T07:26:34.280Z,17.83
2022-08-07T07:26:58.955Z,17.94
2022-08-07T07:28:02.145Z,18.07
2022-08-07T07:29:56.216Z,17.86
2022-08-07T07:30:09.749Z,17.97
2022-08-07T07:30:58.944Z,18.07
2022-08-07T07:31:57.937Z,18.37
2022-08-07T07:32:57.917Z,18.40
2022-08-07T07:33:57.937Z,17.70
2022-08-07T07:34:57.898Z,17.70
2022-08-07T07:36:05.206Z,17.98
2022-08-07T07:36:58.887Z,17.89
2022-08-07T07:38:02.415Z,17.72
2022-08-07T07:38:58.932Z,18.01
2022-08-07T07:39:57.918Z,18.04
2022-08-07T07:41:01.943Z,18.10
2022-08-07T07:42:09.064Z,17.80
2022-08-07T07:43:11.747Z,17.39
2022-08-07T07:44:17.122Z,17.33
2022-08-07T07:44:58.830Z,17.41
2022-08-07T07:46:36.790Z,17.59
2022-08-07T07:47:11.985Z,18.04
2022-08-07T07:47:59.798Z,18.26
2022-08-07T07:48:59.874Z,18.41
2022-08-07T07:50:32.477Z,18.35
2022-08-07T07:50:58.781Z,18.22
2022-08-07T07:51:59.623Z,18.35
2022-08-07T07:52:57.776Z,18.44
2022-08-07T07:53:57.782Z,18.33
2022-08-07T07:54:57.760Z,18.40
2022-08-07T07:56:01.039Z,18.25
2022-08-07T07:56:57.730Z,18.22
2022-08-07T07:57:58.290Z,18.04
2022-08-07T07:58:57.744Z,18.33
2022-08-07T07:59:57.708Z,18.35
2022-08-07T08:00:57.713Z,18.07
2022-08-07T08:02:03.812Z,18.41
2022-08-07T08:03:05.187Z,18.55
2022-08-07T08:04:06.395Z,18.50
2022-08-07T08:04:59.114Z,18.45
2022-08-07T08:05:57.659Z,18.56
2022-08-07T08:07:02.723Z,18.84
2022-08-07T08:08:00.881Z,19.07
2022-08-07T08:08:57.680Z,19.08
2022-08-07T08:10:04.826Z,19.00
2022-08-07T08:10:58.618Z,18.99
2022-08-07T08:12:02.639Z,18.95
2022-08-07T08:12:59.859Z,18.83
2022-08-07T08:13:57.628Z,19.29
2022-08-07T08:14:57.588Z,19.64
2022-08-07T08:16:00.725Z,20.18
2022-08-07T08:17:58.835Z,20.69
2022-08-07T08:18:36.432Z,20.47
2022-08-07T08:20:17.082Z,19.69
2022-08-07T08:20:18.007Z,20.06
2022-08-07T08:20:58.550Z,19.52
2022-08-07T08:22:03.049Z,19.58
2022-08-07T08:22:58.538Z,19.36
2022-08-07T08:23:57.560Z,19.51
2022-08-07T08:25:18.256Z,19.62
2022-08-07T08:26:04.602Z,19.67
2022-08-07T08:26:58.525Z,19.69
2022-08-07T08:28:01.975Z,19.36
2022-08-07T08:28:58.506Z,19.55
2022-08-07T08:29:57.475Z,19.70
2022-08-07T08:30:57.491Z,19.99
2022-08-07T08:31:58.944Z,20.07
2022-08-07T08:32:58.463Z,20.14
2022-08-07T08:33:57.904Z,20.03
2022-08-07T08:34:57.442Z,20.10
2022-08-07T08:35:57.431Z,19.99
2022-08-07T08:36:58.065Z,20.43
2022-08-07T08:38:01.362Z,20.52
2022-08-07T08:38:59.087Z,20.29
2022-08-07T08:39:58.686Z,20.31
2022-08-07T08:40:57.402Z,20.13
2022-08-07T08:41:59.355Z,20.24
2022-08-07T08:42:57.377Z,20.03
2022-08-07T08:43:59.349Z,20.26
2022-08-07T08:44:57.386Z,20.16
2022-08-07T08:46:00.690Z,20.13
2022-08-07T08:46:57.362Z,20.32
2022-08-07T08:47:57.387Z,20.62
2022-08-07T08:48:57.360Z,20.77
2022-08-07T08:50:05.178Z,20.96
2022-08-07T08:50:58.327Z,21.30
2022-08-07T08:52:13.240Z,21.22
2022-08-07T08:52:58.302Z,20.92
2022-08-07T08:53:57.317Z,20.78
2022-08-07T08:54:57.295Z,20.69
2022-08-07T08:55:59.013Z,20.59
2022-08-07T08:56:57.271Z,20.62
2022-08-07T08:57:57.272Z,21.02
2022-08-07T08:58:57.283Z,21.06
2022-08-07T08:59:57.428Z,21.18
2022-08-07T09:00:57.264Z,21.57
2022-08-07T09:01:59.564Z,21.36
2022-08-07T09:02:57.563Z,20.99
2022-08-07T09:03:57.248Z,20.87
2022-08-07T09:04:57.213Z,20.74
2022-08-07T09:05:57.205Z,20.70
2022-08-07T09:06:57.214Z,20.92
2022-08-07T09:07:57.648Z,21.02
2022-08-07T09:08:57.220Z,21.09
2022-08-07T09:09:57.454Z,21.17
2022-08-07T09:10:57.165Z,21.22
2022-08-07T09:12:08.907Z,20.96
2022-08-07T09:12:59.143Z,21.15
2022-08-07T09:13:57.167Z,21.24
2022-08-07T09:14:58.873Z,21.12
2022-08-07T09:16:23.408Z,20.96
2022-08-07T09:16:58.119Z,21.03
2022-08-07T09:17:59.656Z,21.35
2022-08-07T09:18:58.621Z,21.61
2022-08-07T09:19:57.092Z,21.20
2022-08-07T09:20:57.843Z,21.29
2022-08-07T09:22:23.102Z,21.51
2022-08-07T09:24:30.792Z,21.55
2022-08-07T09:24:33.073Z,21.46
2022-08-07T09:24:59.305Z,21.43
2022-08-07T09:25:57.049Z,21.39
2022-08-07T09:26:57.220Z,21.62
2022-08-07T09:28:01.262Z,21.76
2022-08-07T09:30:00.584Z,21.82
2022-08-07T09:30:06.432Z,21.89
2022-08-07T09:30:58.011Z,22.06
2022-08-07T09:31:57.008Z,22.08
2022-08-07T09:32:57.002Z,21.80
2022-08-07T09:33:58.202Z,22.04
2022-08-07T09:34:57.017Z,22.53
2022-08-07T09:36:04.124Z,22.85
2022-08-07T09:36:57.973Z,22.98
2022-08-07T09:37:56.991Z,23.20
2022-08-07T09:38:56.955Z,22.51
2022-08-07T09:39:57.839Z,21.96
2022-08-07T09:40:56.935Z,21.72
2022-08-07T09:41:59.045Z,21.89
2022-08-07T09:42:57.916Z,22.08
2022-08-07T09:44:05.871Z,21.85
2022-08-07T09:47:23.902Z,22.00
2022-08-07T09:47:50.043Z,22.11
2022-08-07T09:47:51.180Z,22.02
2022-08-07T09:48:02.812Z,22.18
2022-08-07T09:50:01.083Z,21.88
2022-08-07T09:50:04.153Z,22.14
2022-08-07T09:50:59.481Z,22.53
2022-08-07T09:52:10.428Z,22.75
2022-08-07T09:52:57.848Z,22.78
2022-08-07T09:54:00.614Z,22.98
2022-08-07T09:54:58.883Z,22.63
2022-08-07T09:56:03.106Z,22.36
2022-08-07T09:56:57.818Z,22.00
2022-08-07T09:57:56.830Z,21.98
2022-08-07T09:58:56.799Z,21.99
2022-08-07T10:00:01.464Z,22.38
2022-08-07T10:00:58.787Z,22.59
2022-08-07T10:01:56.777Z,22.70
2022-08-07T10:02:56.776Z,22.55
2022-08-07T10:04:06.292Z,22.23
2022-08-07T10:04:57.835Z,22.25
2022-08-07T10:05:59.133Z,22.13
2022-08-07T10:06:57.750Z,22.20
2022-08-07T10:07:57.146Z,22.22
2022-08-07T10:08:56.732Z,22.23
2022-08-07T10:10:00.972Z,22.35
2022-08-07T10:11:17.003Z,22.25
2022-08-07T10:12:01.723Z,22.29
2022-08-07T10:12:56.741Z,22.26
2022-08-07T10:14:01.668Z,22.38
2022-08-07T10:14:57.715Z,22.39
2022-08-07T10:15:56.682Z,22.48
2022-08-07T10:16:59.541Z,22.73
2022-08-07T10:18:02.883Z,22.73
2022-08-07T10:18:57.670Z,22.70
2022-08-07T10:19:56.675Z,22.66
2022-08-07T10:20:56.637Z,22.63
2022-08-07T10:22:15.965Z,22.53
2022-08-07T10:22:57.634Z,22.28
2022-08-07T10:24:05.477Z,22.06
2022-08-07T10:24:57.632Z,21.89
2022-08-07T10:25:56.614Z,22.22
2022-08-07T10:26:56.664Z,22.36
2022-08-07T10:27:56.586Z,22.33
2022-08-07T10:28:56.611Z,22.35
2022-08-07T10:29:56.611Z,22.54
2022-08-07T10:30:56.575Z,22.83
2022-08-07T10:31:56.565Z,22.96
2022-08-07T10:32:59.994Z,22.80
2022-08-07T10:34:06.968Z,22.53
2022-08-07T10:34:57.581Z,22.39
2022-08-07T10:36:10.820Z,22.45
2022-08-07T10:36:58.534Z,22.76
2022-08-07T10:38:20.983Z,22.91
2022-08-07T10:38:57.510Z,23.03
2022-08-07T10:39:57.568Z,22.98
2022-08-07T10:40:57.493Z,22.68
2022-08-07T10:42:09.207Z,22.50
2022-08-07T10:42:57.491Z,22.59
2022-08-07T10:44:07.265Z,22.54
2022-08-07T10:44:57.488Z,23.05
2022-08-07T10:45:57.643Z,23.00
2022-08-07T10:46:56.458Z,22.69
2022-08-07T10:48:03.056Z,22.85
2022-08-07T10:48:58.448Z,22.88
2022-08-07T10:49:56.463Z,23.10
2022-08-07T10:50:56.427Z,22.99
2022-08-07T10:52:02.292Z,23.24
2022-08-07T10:52:57.413Z,23.03
2022-08-07T10:54:00.096Z,23.24
2022-08-07T10:55:01.839Z,22.93
2022-08-07T10:55:57.379Z,23.09
2022-08-07T10:56:56.373Z,23.02
2022-08-07T10:57:56.573Z,22.99
2022-08-07T10:58:59.326Z,23.12
2022-08-07T10:59:56.357Z,23.40
2022-08-07T11:00:56.707Z,23.44
2022-08-07T11:02:04.786Z,23.87
2022-08-07T11:02:57.366Z,23.65
2022-08-07T11:04:16.581Z,23.17
2022-08-07T11:05:10.650Z,23.27
2022-08-07T11:06:00.159Z,23.62
2022-08-07T11:07:03.508Z,23.50
2022-08-07T11:08:00.715Z,23.46
2022-08-07T11:08:57.278Z,23.44
2022-08-07T11:10:07.924Z,23.39
2022-08-07T11:11:00.073Z,23.51
2022-08-07T11:11:59.271Z,23.55
2022-08-07T11:13:02.216Z,23.74
2022-08-07T11:14:46.081Z,23.27
2022-08-07T11:15:00.583Z,23.08
2022-08-07T11:15:56.257Z,23.00
2022-08-07T11:17:01.112Z,23.08
2022-08-07T11:18:03.605Z,23.18
2022-08-07T11:18:57.220Z,23.34
2022-08-07T11:19:56.198Z,23.21
2022-08-07T11:20:56.229Z,23.24
2022-08-07T11:21:56.186Z,23.43
2022-08-07T11:22:56.192Z,23.66
2022-08-07T11:23:56.188Z,23.47
2022-08-07T11:24:56.177Z,23.39
2022-08-07T11:25:56.185Z,23.63
2022-08-07T11:26:57.148Z,24.02
2022-08-07T11:28:02.585Z,24.38
2022-08-07T11:28:57.141Z,24.32
2022-08-07T11:30:17.544Z,24.20
2022-08-07T11:30:57.146Z,24.45
2022-08-07T11:31:56.107Z,24.39
2022-08-07T11:32:56.102Z,23.76
2022-08-07T11:34:00.082Z,23.66
2022-08-07T11:34:56.081Z,23.69
2022-08-07T11:35:59.793Z,23.02
2022-08-07T11:36:56.364Z,23.09
2022-08-07T11:38:09.948Z,23.10
2022-08-07T11:38:57.062Z,22.85
2022-08-07T11:39:59.843Z,22.98
2022-08-07T11:40:57.037Z,23.25
2022-08-07T11:42:01.646Z,23.44
2022-08-07T11:42:57.018Z,23.59
2022-08-07T11:44:11.811Z,23.55
2022-08-07T11:44:58.005Z,23.62
2022-08-07T11:45:56.016Z,23.63
2022-08-07T11:46:55.990Z,23.21
2022-08-07T11:47:59.440Z,23.00
2022-08-07T11:49:51.420Z,23.28
2022-08-07T11:50:30.711Z,23.55
2022-08-07T11:50:57.688Z,23.78
2022-08-07T11:51:55.949Z,23.74
2022-08-07T11:52:55.935Z,23.99
2022-08-07T11:54:01.643Z,23.93
2022-08-07T11:54:56.957Z,23.69
2022-08-07T11:56:26.074Z,23.74
2022-08-07T11:56:56.904Z,24.18
2022-08-07T11:57:59.818Z,24.73
2022-08-07T11:58:56.896Z,24.77
2022-08-07T12:00:12.466Z,24.36
2022-08-07T12:01:02.584Z,23.65
2022-08-07T12:02:01.006Z,23.84
2022-08-07T12:02:55.943Z,24.03
2022-08-07T12:03:55.881Z,24.45
2022-08-07T12:04:55.904Z,24.20
2022-08-07T12:05:58.395Z,24.42
2022-08-07T12:07:02.387Z,23.74
2022-08-07T12:08:03.594Z,23.32
2022-08-07T12:08:57.033Z,23.71
2022-08-07T12:09:55.840Z,24.05
2022-08-07T12:11:08.002Z,24.32
2022-08-07T12:12:10.365Z,23.88
2022-08-07T12:12:56.788Z,23.62
2022-08-07T12:13:55.793Z,23.63
2022-08-07T12:15:01.524Z,23.78
2022-08-07T12:16:07.055Z,23.81
2022-08-07T12:16:56.760Z,23.55
2022-08-07T12:17:59.228Z,23.69
2022-08-07T12:18:56.757Z,23.86
2022-08-07T12:20:04.104Z,23.86
2022-08-07T12:20:56.767Z,23.86
2022-08-07T12:22:39.310Z,24.01
2022-08-07T12:22:58.404Z,24.14
2022-08-07T12:24:07.634Z,24.24
2022-08-07T12:25:02.539Z,24.02
2022-08-07T12:26:02.869Z,23.83
2022-08-07T12:26:56.687Z,23.87
2022-08-07T12:28:09.742Z,23.81
2022-08-07T12:28:56.663Z,23.84
2022-08-07T12:29:55.656Z,23.92
2022-08-07T12:30:55.687Z,24.11
2022-08-07T12:32:03.715Z,24.13
2022-08-07T12:32:56.629Z,24.05
2022-08-07T12:33:56.088Z,23.96
2022-08-07T12:34:56.402Z,24.13
2022-08-07T12:35:57.764Z,23.87
2022-08-07T12:36:55.631Z,23.86
2022-08-07T12:38:11.701Z,23.92
2022-08-07T12:38:57.550Z,24.24
2022-08-07T12:39:57.411Z,24.23
2022-08-07T12:40:55.658Z,24.16
2022-08-07T12:41:55.579Z,24.11
2022-08-07T12:42:57.300Z,24.02
2022-08-07T12:44:04.258Z,24.20
2022-08-07T12:44:56.947Z,24.20
2022-08-07T12:45:55.578Z,24.23
2022-08-07T12:46:55.540Z,24.21
2022-08-07T12:47:55.560Z,24.51
2022-08-07T12:48:55.520Z,24.60
2022-08-07T12:50:00.252Z,24.63
2022-08-07T12:50:57.541Z,24.63
2022-08-07T12:52:12.320Z,24.68
2022-08-07T12:52:56.489Z,24.29
2022-08-07T12:54:02.652Z,24.32
2022-08-07T12:55:00.167Z,24.23
2022-08-07T12:56:03.128Z,24.10
2022-08-07T12:56:56.529Z,24.17
2022-08-07T12:58:01.370Z,24.08
2022-08-07T12:58:58.143Z,24.17
2022-08-07T12:59:55.995Z,24.36